createdAt,value
2023-09-10T00:00:03.424Z,24.46
2023-09-10T00:01:03.580Z,24.65
2023-09-10T00:02:03.724Z,24.78
2023-09-10T00:03:03.824Z,24.90
2023-09-10T00:04:04.010Z,25.16
2023-09-10T00:05:04.141Z,25.33
2023-09-10T00:06:05.149Z,25.61
2023-09-10T00:07:04.297Z,25.73
2023-09-10T00:08:04.470Z,25.81
2023-09-10T00:09:04.556Z,25.92
2023-09-10T00:10:04.647Z,26.12
2023-09-10T00:11:04.848Z,26.39
2023-09-10T00:12:04.951Z,26.33
2023-09-10T00:13:05.115Z,26.56
2023-09-10T00:14:05.240Z,26.73
2023-09-10T00:15:05.331Z,26.90
2023-09-10T00:16:05.579Z,27.25
2023-09-10T00:17:05.485Z,27.50
2023-09-10T00:18:05.656Z,27.66
2023-09-10T00:19:05.779Z,27.92
2023-09-10T00:20:05.913Z,28.18
2023-09-10T00:21:05.974Z,28.39
2023-09-10T00:22:06.113Z,28.74
2023-09-10T00:23:06.354Z,28.86
2023-09-10T00:24:06.387Z,29.26
2023-09-10T00:25:06.553Z,29.50
2023-09-10T00:26:06.682Z,29.42
2023-09-10T00:27:06.822Z,29.73
2023-09-10T00:28:06.915Z,30.07
2023-09-10T00:29:07.062Z,30.23
2023-09-10T00:30:07.162Z,30.42
2023-09-10T00:31:07.326Z,30.60
2023-09-10T00:32:07.425Z,30.89
2023-09-10T00:33:07.612Z,31.00
2023-09-10T00:34:07.666Z,31.03
2023-09-10T00:35:07.784Z,31.17
2023-09-10T00:36:07.865Z,31.35
2023-09-10T00:37:07.980Z,31.30
2023-09-10T00:38:08.104Z,31.63
2023-09-10T00:39:08.279Z,31.44
2023-09-10T00:40:08.356Z,31.70
2023-09-10T00:41:08.584Z,31.70
2023-09-10T00:42:08.588Z,31.54
2023-09-10T00:43:08.693Z,31.70
2023-09-10T00:44:08.811Z,31.61
2023-09-10T00:45:08.946Z,31.66
2023-09-10T00:46:09.037Z,31.83
2023-09-10T00:47:09.147Z,31.75
2023-09-10T00:48:09.236Z,31.75
2023-09-10T00:49:09.446Z,31.75
2023-09-10T00:50:09.510Z,31.75
2023-09-10T00:51:09.623Z,31.70
2023-09-10T00:52:09.816Z,31.85
2023-09-10T00:53:10.047Z,31.83
2023-09-10T00:54:10.049Z,31.75
2023-09-10T00:55:10.175Z,31.61
2023-09-10T00:56:10.312Z,31.44
2023-09-10T00:57:10.418Z,31.33
2023-09-10T00:58:10.696Z,31.40
2023-09-10T00:59:10.777Z,31.44
2023-09-10T01:00:10.784Z,31.54
2023-09-10T01:01:11.015Z,31.42
2023-09-10T01:02:11.145Z,31.47
2023-09-10T01:03:11.226Z,31.19
2023-09-10T01:04:11.247Z,31.12
2023-09-10T01:05:11.425Z,31.17
2023-09-10T01:06:11.456Z,31.07
2023-09-10T01:07:11.557Z,31.17
2023-09-10T01:08:11.684Z,30.89
2023-09-10T01:09:11.790Z,30.84
2023-09-10T01:10:11.985Z,30.71
2023-09-10T01:11:12.071Z,30.69
2023-09-10T01:12:12.160Z,30.51
2023-09-10T01:13:12.260Z,30.27
2023-09-10T01:14:12.433Z,30.29
2023-09-10T01:15:12.506Z,30.27
2023-09-10T01:16:12.596Z,30.16
2023-09-10T01:17:12.798Z,29.84
2023-09-10T01:18:12.853Z,29.18
2023-09-10T01:19:12.942Z,28.86
2023-09-10T01:20:13.135Z,28.90
2023-09-10T01:21:13.198Z,28.62
2023-09-10T01:22:13.296Z,28.39
2023-09-10T01:23:13.446Z,26.31
2023-09-10T01:24:13.529Z,24.43
2023-09-10T01:25:13.692Z,25.06
2023-09-10T01:26:13.806Z,25.41
2023-09-10T01:27:13.875Z,24.15
2023-09-10T01:28:13.980Z,24.07
2023-09-10T01:29:14.163Z,24.11
2023-09-10T01:30:14.259Z,24.10
2023-09-10T01:31:14.427Z,24.14
2023-09-10T01:32:14.612Z,24.58
2023-09-10T01:33:14.633Z,24.92
2023-09-10T01:34:14.776Z,25.09
2023-09-10T01:35:14.909Z,25.12
2023-09-10T01:36:15.012Z,25.15
2023-09-10T01:37:15.156Z,25.61
2023-09-10T01:38:15.275Z,25.78
2023-09-10T01:39:15.365Z,26.07
2023-09-10T01:40:15.465Z,26.00
2023-09-10T01:41:15.618Z,26.00
2023-09-10T01:42:15.801Z,26.10
2023-09-10T01:43:15.893Z,26.20
2023-09-10T01:44:16.085Z,25.76
2023-09-10T01:45:16.116Z,25.31
2023-09-10T01:46:16.277Z,25.12
2023-09-10T01:47:16.439Z,24.92
2023-09-10T01:48:16.498Z,22.48
2023-09-10T01:49:16.694Z,22.48
2023-09-10T01:50:16.908Z,22.79
2023-09-10T01:51:16.905Z,21.06
2023-09-10T01:52:17.066Z,20.00
2023-09-10T01:53:17.178Z,18.37
2023-09-10T01:54:17.321Z,19.10
2023-09-10T01:55:17.408Z,19.88
2023-09-10T01:56:17.600Z,20.44
2023-09-10T01:57:17.692Z,19.79
2023-09-10T01:58:17.800Z,20.38
2023-09-10T01:59:17.958Z,20.73
2023-09-10T02:00:17.997Z,19.98
2023-09-10T02:01:18.268Z,17.66
2023-09-10T02:02:18.547Z,15.68
2023-09-10T02:03:18.486Z,14.50
2023-09-10T02:04:18.742Z,13.51
2023-09-10T02:05:18.767Z,13.44
2023-09-10T02:06:18.785Z,12.91
2023-09-10T02:07:18.991Z,12.68
2023-09-10T02:08:19.028Z,12.54
2023-09-10T02:09:19.133Z,12.63
2023-09-10T02:10:19.223Z,13.11
2023-09-10T02:11:19.420Z,14.51
2023-09-10T02:12:19.544Z,15.65
2023-09-10T02:13:19.713Z,16.55
2023-09-10T02:14:19.802Z,17.45
2023-09-10T02:15:19.886Z,17.70
2023-09-10T02:16:20.060Z,15.40
2023-09-10T02:17:20.228Z,14.50
2023-09-10T02:18:20.309Z,13.95
2023-09-10T02:19:20.450Z,13.45
2023-09-10T02:20:20.548Z,13.41
2023-09-10T02:21:20.757Z,12.74
2023-09-10T02:22:20.766Z,12.48
2023-09-10T02:23:20.941Z,13.48
2023-09-10T02:24:21.020Z,12.77
2023-09-10T02:25:22.135Z,12.29
2023-09-10T02:26:21.340Z,11.62
2023-09-10T02:27:21.421Z,11.15
2023-09-10T02:28:21.522Z,11.02
2023-09-10T02:29:21.796Z,10.89
2023-09-10T02:30:21.765Z,10.68
2023-09-10T02:31:21.968Z,10.34
2023-09-10T02:32:22.245Z,10.16
2023-09-10T02:33:22.157Z,10.11
2023-09-10T02:34:22.325Z,10.36
2023-09-10T02:35:22.392Z,10.25
2023-09-10T02:36:22.512Z,10.80
2023-09-10T02:37:22.612Z,11.81
2023-09-10T02:38:22.799Z,12.93
2023-09-10T02:39:22.895Z,14.05
2023-09-10T02:40:22.956Z,15.13
2023-09-10T02:41:23.077Z,16.19
2023-09-10T02:42:23.204Z,17.38
2023-09-10T02:43:23.390Z,18.39
2023-09-10T02:44:23.527Z,19.25
2023-09-10T02:45:23.597Z,18.40
2023-09-10T02:46:23.767Z,17.57
2023-09-10T02:47:23.832Z,18.51
2023-09-10T02:48:23.959Z,19.60
2023-09-10T02:49:24.102Z,20.66
2023-09-10T02:50:27.794Z,21.33
2023-09-10T02:51:24.242Z,21.91
2023-09-10T02:52:24.348Z,21.55
2023-09-10T02:53:24.522Z,20.91
2023-09-10T02:54:24.566Z,21.25
2023-09-10T02:55:24.781Z,19.62
2023-09-10T02:56:24.850Z,17.85
2023-09-10T02:57:24.975Z,16.76
2023-09-10T02:58:25.089Z,15.94
2023-09-10T02:59:25.207Z,15.21
2023-09-10T03:00:25.367Z,14.22
2023-09-10T03:01:25.476Z,13.89
2023-09-10T03:02:25.749Z,15.35
2023-09-10T03:03:25.857Z,16.55
2023-09-10T03:04:25.813Z,17.79
2023-09-10T03:05:25.965Z,18.57
2023-09-10T03:06:26.057Z,19.58
2023-09-10T03:07:26.160Z,20.58
2023-09-10T03:08:26.318Z,21.33
2023-09-10T03:09:26.363Z,22.26
2023-09-10T03:10:26.517Z,22.62
2023-09-10T03:11:26.636Z,23.09
2023-09-10T03:12:26.780Z,23.38
2023-09-10T03:13:26.892Z,23.81
2023-09-10T03:14:27.011Z,23.88
2023-09-10T03:15:27.109Z,23.95
2023-09-10T03:16:27.260Z,23.97
2023-09-10T03:17:27.367Z,24.39
2023-09-10T03:18:27.453Z,24.29
2023-09-10T03:19:27.568Z,24.32
2023-09-10T03:20:27.740Z,24.60
2023-09-10T03:21:27.853Z,24.82
2023-09-10T03:22:27.994Z,24.90
2023-09-10T03:23:28.101Z,24.95
2023-09-10T03:24:28.216Z,24.98
2023-09-10T03:25:28.304Z,24.53
2023-09-10T03:26:28.470Z,24.08
2023-09-10T03:27:28.552Z,22.94
2023-09-10T03:28:28.687Z,22.50
2023-09-10T03:29:28.758Z,22.38
2023-09-10T03:30:28.861Z,22.87
2023-09-10T03:31:28.968Z,23.48
2023-09-10T03:32:29.217Z,23.59
2023-09-10T03:33:29.227Z,23.51
2023-09-10T03:34:29.333Z,23.17
2023-09-10T03:35:29.469Z,22.60
2023-09-10T03:36:29.558Z,22.82
2023-09-10T03:37:29.703Z,23.45
2023-09-10T03:38:29.810Z,23.92
2023-09-10T03:39:29.852Z,24.18
2023-09-10T03:40:29.953Z,24.35
2023-09-10T03:41:30.062Z,24.52
2023-09-10T03:42:30.197Z,24.68
2023-09-10T03:43:30.322Z,24.90
2023-09-10T03:44:30.474Z,25.24
2023-09-10T03:45:30.552Z,25.33
2023-09-10T03:46:30.682Z,25.51
2023-09-10T03:47:30.819Z,25.67
2023-09-10T03:48:30.882Z,25.70
2023-09-10T03:49:31.070Z,25.88
2023-09-10T03:50:31.167Z,25.91
2023-09-10T03:51:31.274Z,25.89
2023-09-10T03:52:31.436Z,26.05
2023-09-10T03:53:31.567Z,26.17
2023-09-10T03:54:31.715Z,26.39
2023-09-10T03:55:31.804Z,26.20
2023-09-10T03:56:31.915Z,26.00
2023-09-10T03:57:32.029Z,25.99
2023-09-10T03:58:32.119Z,26.08
2023-09-10T03:59:32.210Z,25.88
2023-09-10T04:00:32.363Z,25.97
2023-09-10T04:01:32.446Z,26.25
2023-09-10T04:02:32.711Z,26.08
2023-09-10T04:03:32.721Z,25.91
2023-09-10T04:04:32.845Z,24.45
2023-09-10T04:05:32.987Z,23.97
2023-09-10T04:06:33.109Z,23.51
2023-09-10T04:07:33.190Z,23.25
2023-09-10T04:08:33.340Z,23.17
2023-09-10T04:09:33.445Z,22.82
2023-09-10T04:10:33.599Z,22.62
2023-09-10T04:11:33.637Z,22.50
2023-09-10T04:12:33.734Z,22.40
2023-09-10T04:13:33.865Z,22.36
2023-09-10T04:14:34.022Z,22.24
2023-09-10T04:15:34.135Z,22.31
2023-09-10T04:16:34.280Z,22.03
2023-09-10T04:17:34.445Z,21.87
2023-09-10T04:18:34.508Z,21.96
2023-09-10T04:19:35.605Z,21.80
2023-09-10T04:20:34.814Z,21.78
2023-09-10T04:21:34.880Z,21.53
2023-09-10T04:22:35.029Z,21.51
2023-09-10T04:23:35.137Z,21.55
2023-09-10T04:24:35.292Z,21.47
2023-09-10T04:25:35.427Z,21.33
2023-09-10T04:26:35.538Z,21.73
2023-09-10T04:27:35.636Z,21.80
2023-09-10T04:28:35.754Z,22.15
2023-09-10T04:29:35.869Z,22.33
2023-09-10T04:30:35.975Z,22.40
2023-09-10T04:31:36.159Z,22.43
2023-09-10T04:32:36.344Z,22.50
2023-09-10T04:33:36.393Z,22.33
2023-09-10T04:34:36.482Z,22.33
2023-09-10T04:35:36.642Z,22.31
2023-09-10T04:36:36.760Z,22.45
2023-09-10T04:37:36.868Z,22.60
2023-09-10T04:38:37.300Z,22.74
2023-09-10T04:39:37.137Z,22.72
2023-09-10T04:40:37.253Z,22.89
2023-09-10T04:41:37.449Z,23.20
2023-09-10T04:42:37.489Z,23.59
2023-09-10T04:43:37.575Z,23.76
2023-09-10T04:44:37.676Z,24.22
2023-09-10T04:45:37.792Z,24.22
2023-09-10T04:46:37.932Z,24.62
2023-09-10T04:47:38.042Z,24.68
2023-09-10T04:48:38.361Z,25.24
2023-09-10T04:49:38.252Z,25.31
2023-09-10T04:50:38.377Z,25.67
2023-09-10T04:51:38.517Z,25.89
2023-09-10T04:52:38.663Z,26.03
2023-09-10T04:53:38.710Z,26.08
2023-09-10T04:54:38.833Z,26.21
2023-09-10T04:55:39.030Z,26.43
2023-09-10T04:56:39.076Z,26.66
2023-09-10T04:57:39.173Z,26.76
2023-09-10T04:58:39.522Z,27.04
2023-09-10T04:59:39.444Z,26.92
2023-09-10T05:00:39.536Z,26.63
2023-09-10T05:01:39.785Z,26.58
2023-09-10T05:02:39.919Z,26.76
2023-09-10T05:03:39.977Z,26.65
2023-09-10T05:04:40.114Z,26.87
2023-09-10T05:05:40.212Z,26.90
2023-09-10T05:06:40.351Z,26.71
2023-09-10T05:07:40.501Z,26.80
2023-09-10T05:08:40.800Z,26.83
2023-09-10T05:09:40.742Z,26.95
2023-09-10T05:10:40.849Z,27.27
2023-09-10T05:11:40.989Z,27.70
2023-09-10T05:12:41.065Z,27.95
2023-09-10T05:13:41.181Z,28.24
2023-09-10T05:14:41.271Z,28.60
2023-09-10T05:15:41.379Z,28.72
2023-09-10T05:16:41.588Z,29.20
2023-09-10T05:17:41.658Z,29.16
2023-09-10T05:18:41.779Z,29.77
2023-09-10T05:19:41.812Z,30.12
2023-09-10T05:20:41.872Z,30.35
2023-09-10T05:21:42.039Z,30.71
2023-09-10T05:22:42.160Z,30.94
2023-09-10T05:23:42.258Z,31.30
2023-09-10T05:24:42.367Z,31.35
2023-09-10T05:25:42.535Z,31.97
2023-09-10T05:26:42.646Z,32.09
2023-09-10T05:27:42.751Z,32.61
2023-09-10T05:28:46.293Z,32.95
2023-09-10T05:29:42.979Z,33.66
2023-09-10T05:30:43.091Z,34.18
2023-09-10T05:31:43.274Z,34.69
2023-09-10T05:32:43.512Z,34.92
2023-09-10T05:33:43.500Z,35.56
2023-09-10T05:34:43.641Z,36.24
2023-09-10T05:35:43.685Z,36.46
2023-09-10T05:36:43.781Z,36.46
2023-09-10T05:37:44.053Z,36.55
2023-09-10T05:38:44.032Z,36.87
2023-09-10T05:39:44.134Z,37.13
2023-09-10T05:40:44.241Z,37.33
2023-09-10T05:41:44.395Z,37.83
2023-09-10T05:42:44.542Z,37.94
2023-09-10T05:43:44.670Z,38.11
2023-09-10T05:44:44.777Z,38.46
2023-09-10T05:45:44.927Z,38.46
2023-09-10T05:46:45.013Z,38.74
2023-09-10T05:47:45.187Z,38.96
2023-09-10T05:48:45.282Z,39.39
2023-09-10T05:49:45.421Z,39.06
2023-09-10T05:50:45.510Z,38.96
2023-09-10T05:51:45.618Z,38.81
2023-09-10T05:52:45.742Z,38.60
2023-09-10T05:53:45.998Z,38.92
2023-09-10T05:54:45.981Z,39.32
2023-09-10T05:55:46.119Z,39.77
2023-09-10T05:56:46.210Z,39.51
2023-09-10T05:57:46.410Z,39.51
2023-09-10T05:58:46.531Z,39.47
2023-09-10T05:59:46.580Z,39.77
2023-09-10T06:00:46.719Z,40.07
2023-09-10T06:01:46.887Z,40.77
2023-09-10T06:02:47.092Z,41.74
2023-09-10T06:03:47.193Z,42.58
2023-09-10T06:04:47.383Z,43.15
2023-09-10T06:05:47.422Z,43.74
2023-09-10T06:06:47.521Z,44.24
2023-09-10T06:07:47.679Z,44.71
2023-09-10T06:08:47.867Z,44.57
2023-09-10T06:09:47.944Z,45.34
2023-09-10T06:10:48.098Z,46.75
2023-09-10T06:11:48.158Z,47.78
2023-09-10T06:12:48.259Z,48.47
2023-09-10T06:13:48.465Z,49.62
2023-09-10T06:14:48.569Z,50.39
2023-09-10T06:15:48.775Z,50.42
2023-09-10T06:16:48.857Z,50.57
2023-09-10T06:17:48.960Z,50.60
2023-09-10T06:18:49.036Z,50.09
2023-09-10T06:19:49.206Z,49.85
2023-09-10T06:20:49.276Z,49.70
2023-09-10T06:21:49.410Z,49.91
2023-09-10T06:22:49.558Z,50.03
2023-09-10T06:23:49.626Z,49.59
2023-09-10T06:24:49.780Z,49.21
2023-09-10T06:25:53.773Z,48.61
2023-09-10T06:26:49.969Z,49.97
2023-09-10T06:27:50.065Z,52.40
2023-09-10T06:28:50.230Z,53.40
2023-09-10T06:29:50.324Z,54.22
2023-09-10T06:30:50.377Z,54.72
2023-09-10T06:31:50.589Z,54.61
2023-09-10T06:32:50.861Z,53.10
2023-09-10T06:33:50.780Z,52.43
2023-09-10T06:34:51.043Z,52.99
2023-09-10T06:35:51.078Z,52.79
2023-09-10T06:36:51.178Z,54.22
2023-09-10T06:37:51.346Z,54.02
2023-09-10T06:38:51.420Z,55.01
2023-09-10T06:39:51.579Z,56.33
2023-09-10T06:40:51.688Z,57.53
2023-09-10T06:41:51.798Z,58.12
2023-09-10T06:42:51.916Z,58.73
2023-09-10T06:43:52.066Z,56.71
2023-09-10T06:44:52.151Z,52.60
2023-09-10T06:45:52.401Z,51.19
2023-09-10T06:46:52.467Z,47.51
2023-09-10T06:47:52.522Z,43.96
2023-09-10T06:48:52.618Z,41.53
2023-09-10T06:49:52.747Z,44.19
2023-09-10T06:50:52.961Z,44.90
2023-09-10T06:51:53.030Z,47.11
2023-09-10T06:52:53.201Z,49.35
2023-09-10T06:53:53.284Z,49.30
2023-09-10T06:54:54.982Z,48.75
2023-09-10T06:55:53.548Z,45.39
2023-09-10T06:56:53.623Z,43.69
2023-09-10T06:57:53.785Z,45.98
2023-09-10T06:58:53.963Z,48.53
2023-09-10T06:59:54.015Z,49.65
2023-09-10T07:00:54.196Z,50.36
2023-09-10T07:01:54.272Z,50.72
2023-09-10T07:02:54.389Z,50.30
2023-09-10T07:03:54.477Z,50.85
2023-09-10T07:04:54.677Z,50.42
2023-09-10T07:05:54.848Z,47.78
2023-09-10T07:06:54.860Z,45.63
2023-09-10T07:07:55.008Z,44.29
2023-09-10T07:08:55.073Z,44.29
2023-09-10T07:09:55.191Z,44.62
2023-09-10T07:10:55.310Z,43.42
2023-09-10T07:11:55.557Z,37.50
2023-09-10T07:12:55.588Z,36.74
2023-09-10T07:13:55.732Z,40.03
2023-09-10T07:14:55.804Z,38.49
2023-09-10T07:15:55.972Z,37.80
2023-09-10T07:16:56.065Z,37.56
2023-09-10T07:17:56.330Z,38.25
2023-09-10T07:18:56.292Z,40.38
2023-09-10T07:19:56.417Z,42.20
2023-09-10T07:20:56.499Z,42.37
2023-09-10T07:21:56.627Z,39.65
2023-09-10T07:22:56.736Z,37.50
2023-09-10T07:23:56.831Z,32.26
2023-09-10T07:24:56.949Z,30.33
2023-09-10T07:25:57.069Z,33.58
2023-09-10T07:26:57.140Z,31.99
2023-09-10T07:27:57.250Z,29.75
2023-09-10T07:28:57.421Z,32.69
2023-09-10T07:29:57.453Z,34.04
2023-09-10T07:30:57.575Z,35.99
2023-09-10T07:31:57.727Z,36.84
2023-09-10T07:32:57.806Z,32.79
2023-09-10T07:33:57.910Z,33.39
2023-09-10T07:34:58.070Z,33.98
2023-09-10T07:35:58.156Z,28.39
2023-09-10T07:36:58.284Z,28.09
2023-09-10T07:37:58.405Z,27.68
2023-09-10T07:38:58.525Z,22.99
2023-09-10T07:39:58.657Z,24.73
2023-09-10T07:40:58.888Z,26.26
2023-09-10T07:41:58.853Z,29.38
2023-09-10T07:42:58.986Z,31.99
2023-09-10T07:43:59.126Z,35.09
2023-09-10T07:44:59.201Z,36.24
2023-09-10T07:45:59.362Z,40.49
2023-09-10T07:46:59.513Z,42.71
2023-09-10T07:47:59.617Z,42.67
2023-09-10T07:48:59.691Z,41.90
2023-09-10T07:49:59.852Z,39.99
2023-09-10T07:50:59.909Z,40.69
2023-09-10T07:51:59.988Z,39.39
2023-09-10T07:53:00.189Z,37.83
2023-09-10T07:54:00.267Z,41.86
2023-09-10T07:55:00.450Z,43.46
2023-09-10T07:56:00.497Z,48.22
2023-09-10T07:57:00.596Z,44.57
2023-09-10T07:58:00.764Z,47.06
2023-09-10T07:59:00.929Z,46.03
2023-09-10T08:00:01.107Z,50.24
2023-09-10T08:01:01.176Z,52.01
2023-09-10T08:02:01.324Z,51.88
2023-09-10T08:03:01.535Z,47.57
2023-09-10T08:04:01.542Z,47.73
2023-09-10T08:05:01.683Z,45.68
2023-09-10T08:06:01.765Z,48.87
2023-09-10T08:07:01.899Z,49.47
2023-09-10T08:08:02.035Z,51.38
2023-09-10T08:09:02.128Z,51.91
2023-09-10T08:10:02.335Z,46.90
2023-09-10T08:11:02.498Z,45.39
2023-09-10T08:12:02.785Z,48.28
2023-09-10T08:13:02.684Z,50.00
2023-09-10T08:14:02.801Z,50.54
2023-09-10T08:15:02.895Z,51.03
2023-09-10T08:16:03.011Z,51.50
2023-09-10T08:17:03.250Z,51.72
2023-09-10T08:18:04.912Z,52.30
2023-09-10T08:19:03.386Z,53.36
2023-09-10T08:20:03.548Z,52.11
2023-09-10T08:21:03.665Z,49.47
2023-09-10T08:22:03.753Z,47.62
2023-09-10T08:23:03.875Z,48.78
2023-09-10T08:24:03.987Z,52.08
2023-09-10T08:25:04.132Z,53.13
2023-09-10T08:26:04.309Z,53.53
2023-09-10T08:27:04.489Z,56.03
2023-09-10T08:28:04.534Z,57.14
2023-09-10T08:29:04.741Z,57.69
2023-09-10T08:30:04.780Z,59.31
2023-09-10T08:31:04.948Z,56.18
2023-09-10T08:32:05.292Z,53.26
2023-09-10T08:33:05.234Z,51.25
2023-09-10T08:34:05.274Z,53.84
2023-09-10T08:35:05.455Z,56.52
2023-09-10T08:36:05.504Z,54.54
2023-09-10T08:37:05.615Z,55.66
2023-09-10T08:38:05.754Z,49.97
2023-09-10T08:39:05.945Z,53.43
2023-09-10T08:40:05.971Z,55.51
2023-09-10T08:41:06.143Z,55.26
2023-09-10T08:42:06.388Z,52.99
2023-09-10T08:43:06.418Z,53.95
2023-09-10T08:44:06.534Z,57.25
2023-09-10T08:45:06.668Z,59.02
2023-09-10T08:46:06.788Z,61.94
2023-09-10T08:47:06.939Z,65.30
2023-09-10T08:48:07.052Z,59.86
2023-09-10T08:49:07.107Z,59.10
2023-09-10T08:50:07.263Z,54.79
2023-09-10T08:51:07.375Z,48.03
2023-09-10T08:52:07.479Z,52.14
2023-09-10T08:53:07.662Z,55.92
2023-09-10T08:54:07.742Z,57.10
2023-09-10T08:55:07.854Z,64.31
2023-09-10T08:56:08.037Z,68.05
2023-09-10T08:57:08.156Z,60.68
2023-09-10T08:58:08.278Z,58.82
2023-09-10T08:59:08.386Z,56.52
2023-09-10T09:00:08.485Z,52.76
2023-09-10T09:01:08.646Z,54.29
2023-09-10T09:02:08.814Z,62.63
2023-09-10T09:03:09.029Z,68.50
2023-09-10T09:04:08.912Z,70.57
2023-09-10T09:05:09.151Z,63.91
2023-09-10T09:06:09.185Z,65.00
2023-09-10T09:07:09.365Z,69.63
2023-09-10T09:08:09.503Z,73.85
2023-09-10T09:09:09.605Z,72.39
2023-09-10T09:10:09.618Z,73.02
2023-09-10T09:11:09.751Z,79.29
2023-09-10T09:12:09.858Z,82.31
2023-09-10T09:13:09.988Z,77.89
2023-09-10T09:14:10.252Z,80.50
2023-09-10T09:15:10.275Z,78.32
2023-09-10T09:16:10.374Z,79.96
2023-09-10T09:17:10.594Z,79.06
2023-09-10T09:18:10.649Z,79.66
2023-09-10T09:19:10.722Z,82.72
2023-09-10T09:20:10.848Z,83.38
2023-09-10T09:21:10.954Z,79.66
2023-09-10T09:22:11.092Z,77.96
2023-09-10T09:23:11.301Z,80.42
2023-09-10T09:24:11.327Z,86.46
2023-09-10T09:25:11.522Z,85.32
2023-09-10T09:26:11.632Z,77.18
2023-09-10T09:27:11.729Z,76.89
2023-09-10T09:28:11.864Z,78.69
2023-09-10T09:29:12.121Z,73.53
2023-09-10T09:30:12.191Z,73.72
2023-09-10T09:31:12.346Z,79.89
2023-09-10T09:32:12.457Z,81.28
2023-09-10T09:33:12.643Z,80.65
2023-09-10T09:34:12.692Z,78.32
2023-09-10T09:35:12.909Z,75.51
2023-09-10T09:36:13.091Z,73.21
2023-09-10T09:37:13.082Z,76.75
2023-09-10T09:38:13.229Z,82.56
2023-09-10T09:39:13.320Z,86.20
2023-09-10T09:40:13.458Z,88.56
2023-09-10T09:41:13.611Z,89.50
2023-09-10T09:42:13.698Z,87.00
2023-09-10T09:43:20.830Z,89.31
2023-09-10T09:44:15.025Z,90.76
2023-09-10T09:45:14.121Z,88.00
2023-09-10T09:46:14.316Z,87.27
2023-09-10T09:47:14.437Z,85.24
2023-09-10T09:48:14.587Z,84.38
2023-09-10T09:49:14.628Z,83.46
2023-09-10T09:50:14.798Z,82.64
2023-09-10T09:51:14.872Z,77.32
2023-09-10T09:52:14.994Z,66.33
2023-09-10T09:53:15.124Z,63.05
2023-09-10T09:54:15.241Z,67.18
2023-09-10T09:55:15.348Z,71.83
2023-09-10T09:56:15.534Z,66.86
2023-09-10T09:57:15.611Z,65.36
2023-09-10T09:58:15.727Z,70.45
2023-09-10T09:59:15.871Z,75.58
2023-09-10T10:00:15.973Z,76.40
2023-09-10T10:01:16.142Z,71.77
2023-09-10T10:02:16.329Z,64.70
2023-09-10T10:03:16.376Z,66.07
2023-09-10T10:04:16.605Z,67.45
2023-09-10T10:05:16.724Z,67.72
2023-09-10T10:06:16.838Z,64.95
2023-09-10T10:07:24.867Z,65.20
2023-09-10T10:08:18.074Z,61.04
2023-09-10T10:09:17.095Z,61.44
2023-09-10T10:10:17.203Z,57.69
2023-09-10T10:11:17.368Z,54.83
2023-09-10T10:12:17.419Z,60.38
2023-09-10T10:13:17.520Z,64.55
2023-09-10T10:14:17.628Z,68.55
2023-09-10T10:15:17.754Z,71.65
2023-09-10T10:16:17.997Z,75.24
2023-09-10T10:17:18.096Z,73.66
2023-09-10T10:18:18.220Z,72.02
2023-09-10T10:19:18.252Z,72.14
2023-09-10T10:20:18.492Z,72.39
2023-09-10T10:21:18.548Z,66.60
2023-09-10T10:22:18.745Z,65.36
2023-09-10T10:23:24.724Z,72.64
2023-09-10T10:24:19.954Z,76.26
2023-09-10T10:25:19.097Z,76.06
2023-09-10T10:26:19.265Z,77.60
2023-09-10T10:27:19.369Z,68.72
2023-09-10T10:28:19.471Z,68.11
2023-09-10T10:29:19.681Z,72.08
2023-09-10T10:30:19.781Z,68.27
2023-09-10T10:31:19.912Z,62.77
2023-09-10T10:32:20.026Z,64.60
2023-09-10T10:33:20.143Z,67.83
2023-09-10T10:34:20.242Z,70.98
2023-09-10T10:35:20.391Z,71.96
2023-09-10T10:36:20.488Z,72.89
2023-09-10T10:37:20.616Z,73.92
2023-09-10T10:38:20.770Z,76.82
2023-09-10T10:39:20.869Z,73.59
2023-09-10T10:40:21.020Z,64.11
2023-09-10T10:41:21.169Z,67.08
2023-09-10T10:42:21.231Z,60.68
2023-09-10T10:43:21.334Z,64.45
2023-09-10T10:44:21.539Z,68.61
2023-09-10T10:45:21.586Z,71.29
2023-09-10T10:46:21.739Z,72.77
2023-09-10T10:47:21.973Z,72.02
2023-09-10T10:48:21.918Z,68.61
2023-09-10T10:49:22.094Z,62.77
2023-09-10T10:50:22.312Z,66.60
2023-09-10T10:51:22.458Z,70.80
2023-09-10T10:52:22.477Z,76.20
2023-09-10T10:53:22.658Z,81.75
2023-09-10T10:54:22.752Z,81.83
2023-09-10T10:55:22.861Z,82.47
2023-09-10T10:56:23.006Z,78.99
2023-09-10T10:57:23.058Z,77.25
2023-09-10T10:58:23.211Z,76.13
2023-09-10T10:59:23.372Z,77.96
2023-09-10T11:00:23.484Z,79.81
2023-09-10T11:01:23.609Z,72.20
2023-09-10T11:02:23.961Z,78.18
2023-09-10T11:03:23.908Z,78.47
2023-09-10T11:04:24.004Z,80.65
2023-09-10T11:05:24.391Z,84.04
2023-09-10T11:06:24.198Z,79.89
2023-09-10T11:07:24.388Z,66.76
2023-09-10T11:08:24.565Z,65.15
2023-09-10T11:09:24.601Z,64.50
2023-09-10T11:10:24.809Z,58.37
2023-09-10T11:11:24.839Z,59.61
2023-09-10T11:12:24.950Z,56.26
2023-09-10T11:13:26.097Z,59.78
2023-09-10T11:14:25.236Z,56.45
2023-09-10T11:15:25.385Z,61.26
2023-09-10T11:16:25.527Z,64.65
2023-09-10T11:17:25.975Z,65.41
2023-09-10T11:18:25.689Z,68.83
2023-09-10T11:19:25.848Z,70.92
2023-09-10T11:20:26.056Z,70.04
2023-09-10T11:21:26.092Z,74.77
2023-09-10T11:22:26.217Z,78.40
2023-09-10T11:23:26.390Z,80.73
2023-09-10T11:24:26.478Z,82.64
2023-09-10T11:25:26.552Z,86.02
2023-09-10T11:26:26.787Z,87.00
2023-09-10T11:27:26.869Z,84.81
2023-09-10T11:28:26.955Z,86.46
2023-09-10T11:29:27.118Z,82.80
2023-09-10T11:30:27.215Z,80.12
2023-09-10T11:31:27.506Z,80.42
2023-09-10T11:32:27.435Z,81.91
2023-09-10T11:33:27.596Z,81.12
2023-09-10T11:34:27.687Z,84.04
2023-09-10T11:35:27.829Z,84.04
2023-09-10T11:36:27.935Z,83.87
2023-09-10T11:37:28.034Z,85.93
2023-09-10T11:38:28.240Z,92.25
2023-09-10T11:39:28.245Z,93.58
2023-09-10T11:40:28.403Z,87.00
2023-09-10T11:41:28.572Z,85.06
2023-09-10T11:42:28.653Z,80.97
2023-09-10T11:43:28.776Z,72.83
2023-09-10T11:44:28.969Z,67.56
2023-09-10T11:45:29.041Z,67.13
2023-09-10T11:46:29.169Z,56.37
2023-09-10T11:47:29.433Z,59.15
2023-09-10T11:48:29.447Z,63.19
2023-09-10T11:49:29.518Z,65.66
2023-09-10T11:50:29.728Z,68.67
2023-09-10T11:51:29.757Z,68.95
2023-09-10T11:52:29.856Z,68.83
2023-09-10T11:53:30.124Z,70.45
2023-09-10T11:54:30.093Z,72.20
2023-09-10T11:55:30.192Z,74.71
2023-09-10T11:56:30.403Z,81.44
2023-09-10T11:57:30.497Z,86.73
2023-09-10T11:58:30.628Z,81.75
2023-09-10T11:59:30.817Z,75.92
2023-09-10T12:00:30.882Z,82.64
2023-09-10T12:01:31.031Z,81.67
2023-09-10T12:02:31.214Z,67.56
2023-09-10T12:03:31.493Z,74.05
2023-09-10T12:04:31.410Z,78.25
2023-09-10T12:05:33.849Z,71.65
2023-09-10T12:06:31.646Z,72.58
2023-09-10T12:07:31.776Z,67.02
2023-09-10T12:08:31.922Z,63.72
2023-09-10T12:09:32.028Z,58.86
2023-09-10T12:10:32.127Z,63.29
2023-09-10T12:11:32.233Z,55.01
2023-09-10T12:12:32.332Z,60.95
2023-09-10T12:13:32.512Z,63.67
2023-09-10T12:14:32.615Z,60.55
2023-09-10T12:15:32.723Z,59.65
2023-09-10T12:16:32.831Z,54.08
2023-09-10T12:17:33.088Z,58.53
2023-09-10T12:18:33.105Z,66.02
2023-09-10T12:19:33.247Z,72.58
2023-09-10T12:20:33.464Z,73.66
2023-09-10T12:21:33.476Z,70.63
2023-09-10T12:22:33.625Z,67.08
2023-09-10T12:23:33.810Z,66.76
2023-09-10T12:24:33.972Z,61.08
2023-09-10T12:25:34.044Z,55.59
2023-09-10T12:26:34.198Z,51.09
2023-09-10T12:27:34.316Z,49.59
2023-09-10T12:28:34.423Z,50.85
2023-09-10T12:29:34.604Z,51.09
2023-09-10T12:30:34.623Z,54.76
2023-09-10T12:31:34.804Z,58.33
2023-09-10T12:32:34.986Z,62.63
2023-09-10T12:33:35.059Z,66.54
2023-09-10T12:34:35.295Z,64.80
2023-09-10T12:35:35.426Z,59.91
2023-09-10T12:36:35.425Z,63.87
2023-09-10T12:37:35.577Z,63.82
2023-09-10T12:38:35.788Z,66.13
2023-09-10T12:39:35.824Z,68.44
2023-09-10T12:40:35.973Z,66.65
2023-09-10T12:41:37.354Z,66.76
2023-09-10T12:42:36.163Z,68.50
2023-09-10T12:43:36.282Z,66.28
2023-09-10T12:44:36.472Z,63.53
2023-09-10T12:45:36.519Z,63.53
2023-09-10T12:46:36.736Z,58.73
2023-09-10T12:47:36.793Z,60.82
2023-09-10T12:48:36.988Z,64.95
2023-09-10T12:49:36.946Z,71.47
2023-09-10T12:50:37.145Z,76.54
2023-09-10T12:51:37.198Z,79.74
2023-09-10T12:52:37.338Z,75.78
2023-09-10T12:53:37.474Z,65.41